sensor_id;sensor_type;location;lat;lon;timestamp;pressure;altitude;pressure_sealevel;temperature;humidity
24422;BME280;12600;53.326;-6.298;2023-03-04T00:02:16;102981.81;;;8.69;67.51
24422;BME280;12600;53.326;-6.298;2023-03-04T00:05:06;102978.00;;;8.70;67.78
24422;BME280;12600;53.326;-6.298;2023-03-04T00:07:57;102974.72;;;8.68;67.50
24422;BME280;12600;53.326;-6.298;2023-03-04T00:10:46;102970.09;;;8.68;67.26
24422;BME280;12600;53.326;-6.298;2023-03-04T00:13:35;102966.53;;;8.68;67.17
24422;BME280;12600;53.326;-6.298;2023-03-04T00:16:25;102963.19;;;8.66;66.44
24422;BME280;12600;53.326;-6.298;2023-03-04T00:19:15;102951.72;;;8.64;66.38
24422;BME280;12600;53.326;-6.298;2023-03-04T00:22:05;102956.34;;;8.63;66.40
24422;BME280;12600;53.326;-6.298;2023-03-04T00:24:56;102958.34;;;8.68;66.35
24422;BME280;12600;53.326;-6.298;2023-03-04T00:27:45;102960.00;;;8.69;66.00
24422;BME280;12600;53.326;-6.298;2023-03-04T00:30:35;102960.00;;;8.69;66.44
24422;BME280;12600;53.326;-6.298;2023-03-04T00:33:24;102957.16;;;8.64;66.78
24422;BME280;12600;53.326;-6.298;2023-03-04T00:36:13;102956.72;;;8.67;66.38
24422;BME280;12600;53.326;-6.298;2023-03-04T00:39:03;102958.13;;;8.69;67.09
24422;BME280;12600;53.326;-6.298;2023-03-04T00:41:53;102955.63;;;8.68;67.11
24422;BME280;12600;53.326;-6.298;2023-03-04T00:44:43;102946.63;;;8.67;66.68
24422;BME280;12600;53.326;-6.298;2023-03-04T00:47:32;102944.72;;;8.68;67.28
24422;BME280;12600;53.326;-6.298;2023-03-04T00:50:21;102950.75;;;8.70;67.28
24422;BME280;12600;53.326;-6.298;2023-03-04T00:53:11;102942.25;;;8.66;67.31
24422;BME280;12600;53.326;-6.298;2023-03-04T00:56:00;102942.34;;;8.72;66.95
24422;BME280;12600;53.326;-6.298;2023-03-04T00:58:52;102937.38;;;8.68;67.00
24422;BME280;12600;53.326;-6.298;2023-03-04T01:01:41;102939.38;;;8.73;66.56
24422;BME280;12600;53.326;-6.298;2023-03-04T01:04:30;102946.47;;;8.74;66.80
24422;BME280;12600;53.326;-6.298;2023-03-04T01:07:20;102939.88;;;8.70;66.80
24422;BME280;12600;53.326;-6.298;2023-03-04T01:10:12;102942.00;;;8.68;67.03
24422;BME280;12600;53.326;-6.298;2023-03-04T01:13:01;102940.34;;;8.67;66.89
24422;BME280;12600;53.326;-6.298;2023-03-04T01:15:52;102950.50;;;8.72;66.62
24422;BME280;12600;53.326;-6.298;2023-03-04T01:18:42;102940.00;;;8.63;66.70
24422;BME280;12600;53.326;-6.298;2023-03-04T01:21:33;102938.34;;;8.62;66.49
24422;BME280;12600;53.326;-6.298;2023-03-04T01:24:23;102946.63;;;8.67;66.90
24422;BME280;12600;53.326;-6.298;2023-03-04T01:27:12;102957.28;;;8.69;66.73
24422;BME280;12600;53.326;-6.298;2023-03-04T01:30:02;102944.03;;;8.61;66.97
24422;BME280;12600;53.326;-6.298;2023-03-04T01:32:53;102961.78;;;8.63;66.91
24422;BME280;12600;53.326;-6.298;2023-03-04T01:35:43;102965.72;;;8.67;67.04
24422;BME280;12600;53.326;-6.298;2023-03-04T01:38:32;102964.88;;;8.67;66.87
24422;BME280;12600;53.326;-6.298;2023-03-04T01:41:24;102955.75;;;8.61;66.81
24422;BME280;12600;53.326;-6.298;2023-03-04T01:44:14;102956.09;;;8.65;66.75
24422;BME280;12600;53.326;-6.298;2023-03-04T01:47:04;102956.09;;;8.65;66.86
24422;BME280;12600;53.326;-6.298;2023-03-04T01:49:57;102953.84;;;8.62;66.72
24422;BME280;12600;53.326;-6.298;2023-03-04T01:52:51;102941.69;;;8.53;66.23
24422;BME280;12600;53.326;-6.298;2023-03-04T01:55:41;102946.19;;;8.59;66.38
24422;BME280;12600;53.326;-6.298;2023-03-04T01:58:33;102942.25;;;8.55;66.51
24422;BME280;12600;53.326;-6.298;2023-03-04T02:01:23;102948.91;;;8.59;66.87
24422;BME280;12600;53.326;-6.298;2023-03-04T02:04:13;102929.69;;;8.54;66.57
24422;BME280;12600;53.326;-6.298;2023-03-04T02:07:06;102936.94;;;8.60;66.46
24422;BME280;12600;53.326;-6.298;2023-03-04T02:09:57;102930.88;;;8.58;65.89
24422;BME280;12600;53.326;-6.298;2023-03-04T02:12:46;102942.63;;;8.58;66.22
24422;BME280;12600;53.326;-6.298;2023-03-04T02:15:36;102933.00;;;8.56;66.28
24422;BME280;12600;53.326;-6.298;2023-03-04T02:18:25;102936.94;;;8.60;66.91
24422;BME280;12600;53.326;-6.298;2023-03-04T02:21:19;102935.50;;;8.57;66.27
24422;BME280;12600;53.326;-6.298;2023-03-04T02:24:24;102928.06;;;8.53;66.72
24422;BME280;12600;53.326;-6.298;2023-03-04T02:27:25;102932.56;;;8.59;66.88
24422;BME280;12600;53.326;-6.298;2023-03-04T02:30:18;102929.81;;;8.59;66.71
24422;BME280;12600;53.326;-6.298;2023-03-04T02:33:16;102925.41;;;8.58;65.77
24422;BME280;12600;53.326;-6.298;2023-03-04T02:36:07;102931.34;;;8.55;65.71
24422;BME280;12600;53.326;-6.298;2023-03-04T02:39:03;102926.97;;;8.42;64.45
24422;BME280;12600;53.326;-6.298;2023-03-04T02:41:54;102934.69;;;8.45;65.29
24422;BME280;12600;53.326;-6.298;2023-03-04T02:44:48;102922.03;;;8.39;64.47
24422;BME280;12600;53.326;-6.298;2023-03-04T02:47:39;102929.38;;;8.38;65.46
24422;BME280;12600;53.326;-6.298;2023-03-04T02:50:35;102925.44;;;8.34;64.66
24422;BME280;12600;53.326;-6.298;2023-03-04T02:53:26;102917.97;;;8.30;64.96
24422;BME280;12600;53.326;-6.298;2023-03-04T02:56:15;102921.88;;;8.22;64.24
24422;BME280;12600;53.326;-6.298;2023-03-04T02:59:05;102921.88;;;8.22;64.33
24422;BME280;12600;53.326;-6.298;2023-03-04T03:01:58;102929.00;;;8.23;64.21
24422;BME280;12600;53.326;-6.298;2023-03-04T03:04:56;102929.47;;;8.20;64.61
24422;BME280;12600;53.326;-6.298;2023-03-04T03:07:51;102924.47;;;8.17;64.13
24422;BME280;12600;53.326;-6.298;2023-03-04T03:10:41;102917.28;;;8.11;64.22
24422;BME280;12600;53.326;-6.298;2023-03-04T03:13:31;102928.28;;;8.16;65.04
24422;BME280;12600;53.326;-6.298;2023-03-04T03:16:20;102926.50;;;8.10;65.04
24422;BME280;12600;53.326;-6.298;2023-03-04T03:19:11;102924.00;;;8.08;64.80
24422;BME280;12600;53.326;-6.298;2023-03-04T03:22:01;102922.72;;;8.11;65.06
24422;BME280;12600;53.326;-6.298;2023-03-04T03:24:50;102927.94;;;8.12;65.32
24422;BME280;12600;53.326;-6.298;2023-03-04T03:27:40;102905.06;;;8.02;64.84
24422;BME280;12600;53.326;-6.298;2023-03-04T03:30:31;102919.63;;;8.07;64.78
24422;BME280;12600;53.326;-6.298;2023-03-04T03:33:20;102920.47;;;8.08;64.87
24422;BME280;12600;53.326;-6.298;2023-03-04T03:36:11;102923.19;;;8.08;65.00
24422;BME280;12600;53.326;-6.298;2023-03-04T03:39:00;102913.59;;;8.05;64.94
24422;BME280;12600;53.326;-6.298;2023-03-04T03:41:50;102908.75;;;8.07;65.24
24422;BME280;12600;53.326;-6.298;2023-03-04T03:44:39;102907.56;;;8.03;64.77
24422;BME280;12600;53.326;-6.298;2023-03-04T03:47:28;102913.38;;;8.07;65.16
24422;BME280;12600;53.326;-6.298;2023-03-04T03:50:19;102909.47;;;8.03;64.47
24422;BME280;12600;53.326;-6.298;2023-03-04T03:53:09;102892.28;;;7.91;64.65
24422;BME280;12600;53.326;-6.298;2023-03-04T03:55:59;102906.38;;;7.99;64.54
24422;BME280;12600;53.326;-6.298;2023-03-04T03:58:48;102901.75;;;8.00;65.22
24422;BME280;12600;53.326;-6.298;2023-03-04T04:01:37;102904.38;;;7.95;64.84
24422;BME280;12600;53.326;-6.298;2023-03-04T04:04:27;102910.41;;;7.97;64.74
24422;BME280;12600;53.326;-6.298;2023-03-04T04:07:16;102906.03;;;7.96;64.72
24422;BME280;12600;53.326;-6.298;2023-03-04T04:10:09;102905.22;;;7.95;64.57
24422;BME280;12600;53.326;-6.298;2023-03-04T04:12:58;102913.59;;;7.94;64.89
24422;BME280;12600;53.326;-6.298;2023-03-04T04:15:47;102915.97;;;7.90;64.07
24422;BME280;12600;53.326;-6.298;2023-03-04T04:18:39;102918.78;;;7.83;63.56
24422;BME280;12600;53.326;-6.298;2023-03-04T04:21:28;102919.63;;;7.84;63.74
24422;BME280;12600;53.326;-6.298;2023-03-04T04:24:17;102907.56;;;7.80;63.93
24422;BME280;12600;53.326;-6.298;2023-03-04T04:27:08;102914.78;;;7.86;64.51
24422;BME280;12600;53.326;-6.298;2023-03-04T04:29:58;102909.09;;;7.88;64.56
24422;BME280;12600;53.326;-6.298;2023-03-04T04:32:47;102912.41;;;7.90;64.35
24422;BME280;12600;53.326;-6.298;2023-03-04T04:35:37;102905.19;;;7.83;64.09
24422;BME280;12600;53.326;-6.298;2023-03-04T04:38:27;102895.81;;;7.68;64.21
24422;BME280;12600;53.326;-6.298;2023-03-04T04:41:19;102905.09;;;7.78;64.03
24422;BME280;12600;53.326;-6.298;2023-03-04T04:44:12;102904.84;;;7.80;64.36
24422;BME280;12600;53.326;-6.298;2023-03-04T04:47:01;102913.94;;;7.85;63.97
24422;BME280;12600;53.326;-6.298;2023-03-04T04:49:50;102914.56;;;7.88;64.13
24422;BME280;12600;53.326;-6.298;2023-03-04T04:52:40;102909.09;;;7.88;63.90
24422;BME280;12600;53.326;-6.298;2023-03-04T04:55:30;102902.00;;;7.87;64.05
24422;BME280;12600;53.326;-6.298;2023-03-04T04:58:19;102905.19;;;7.83;64.52
24422;BME280;12600;53.326;-6.298;2023-03-04T05:01:10;102911.47;;;7.84;63.32
24422;BME280;12600;53.326;-6.298;2023-03-04T05:03:59;102915.25;;;7.83;64.20
24422;BME280;12600;53.326;-6.298;2023-03-04T05:06:48;102911.69;;;7.82;64.08
24422;BME280;12600;53.326;-6.298;2023-03-04T05:09:38;102914.66;;;7.81;63.83
24422;BME280;12600;53.326;-6.298;2023-03-04T05:12:27;102906.72;;;7.79;64.24
24422;BME280;12600;53.326;-6.298;2023-03-04T05:15:16;102916.56;;;7.80;64.10
24422;BME280;12600;53.326;-6.298;2023-03-04T05:18:07;102915.34;;;7.76;64.18
24422;BME280;12600;53.326;-6.298;2023-03-04T05:20:58;102915.34;;;7.76;63.59
24422;BME280;12600;53.326;-6.298;2023-03-04T05:23:48;102909.44;;;7.68;64.14
24422;BME280;12600;53.326;-6.298;2023-03-04T05:26:38;102922.78;;;7.69;64.15
24422;BME280;12600;53.326;-6.298;2023-03-04T05:29:27;102923.03;;;7.68;63.74
24422;BME280;12600;53.326;-6.298;2023-03-04T05:32:16;102923.28;;;7.66;63.75
24422;BME280;12600;53.326;-6.298;2023-03-04T05:35:08;102926.56;;;7.68;63.47
24422;BME280;12600;53.326;-6.298;2023-03-04T05:37:58;102919.97;;;7.64;63.79
24422;BME280;12600;53.326;-6.298;2023-03-04T05:40:48;102930.59;;;7.66;63.79
24422;BME280;12600;53.326;-6.298;2023-03-04T05:43:38;102915.44;;;7.58;64.19
24422;BME280;12600;53.326;-6.298;2023-03-04T05:46:29;102929.69;;;7.72;64.09
24422;BME280;12600;53.326;-6.298;2023-03-04T05:49:20;102919.47;;;7.67;64.33
24422;BME280;12600;53.326;-6.298;2023-03-04T05:52:11;102928.38;;;7.74;63.37
24422;BME280;12600;53.326;-6.298;2023-03-04T05:55:00;102927.78;;;7.72;63.90
24422;BME280;12600;53.326;-6.298;2023-03-04T05:57:49;102932.97;;;7.74;63.75
24422;BME280;12600;53.326;-6.298;2023-03-04T06:00:39;102934.88;;;7.73;64.08
24422;BME280;12600;53.326;-6.298;2023-03-04T06:03:28;102923.16;;;7.73;64.58
24422;BME280;12600;53.326;-6.298;2023-03-04T06:06:17;102921.97;;;7.69;64.05
24422;BME280;12600;53.326;-6.298;2023-03-04T06:09:08;102933.94;;;7.79;63.73
24422;BME280;12600;53.326;-6.298;2023-03-04T06:11:57;102932.88;;;7.80;63.71
24422;BME280;12600;53.326;-6.298;2023-03-04T06:14:47;102935.59;;;7.80;63.75
24422;BME280;12600;53.326;-6.298;2023-03-04T06:17:37;102936.66;;;7.79;63.91
24422;BME280;12600;53.326;-6.298;2023-03-04T06:20:29;102931.91;;;7.75;63.75
24422;BME280;12600;53.326;-6.298;2023-03-04T06:23:18;102928.84;;;7.71;63.42
24422;BME280;12600;53.326;-6.298;2023-03-04T06:26:09;102939.25;;;7.74;63.34
24422;BME280;12600;53.326;-6.298;2023-03-04T06:29:03;102932.75;;;7.64;63.07
24422;BME280;12600;53.326;-6.298;2023-03-04T06:31:52;102940.31;;;7.73;62.90
24422;BME280;12600;53.326;-6.298;2023-03-04T06:34:42;102944.09;;;7.72;63.33
24422;BME280;12600;53.326;-6.298;2023-03-04T06:37:31;102934.16;;;7.66;62.58
24422;BME280;12600;53.326;-6.298;2023-03-04T06:40:20;102923.38;;;7.60;62.77
24422;BME280;12600;53.326;-6.298;2023-03-04T06:43:11;102939.34;;;7.68;63.06
24422;BME280;12600;53.326;-6.298;2023-03-04T06:46:00;102931.63;;;7.53;62.84
24422;BME280;12600;53.326;-6.298;2023-03-04T06:48:49;102946.94;;;7.66;63.34
24422;BME280;12600;53.326;-6.298;2023-03-04T06:51:39;102941.84;;;7.69;63.48
24422;BME280;12600;53.326;-6.298;2023-03-04T06:54:28;102942.91;;;7.68;62.99
24422;BME280;12600;53.326;-6.298;2023-03-04T06:57:17;102946.25;;;7.70;63.44
24422;BME280;12600;53.326;-6.298;2023-03-04T07:00:10;102946.84;;;7.72;63.01
24422;BME280;12600;53.326;-6.298;2023-03-04T07:02:59;102938.91;;;7.71;63.58
24422;BME280;12600;53.326;-6.298;2023-03-04T07:05:48;102944.22;;;7.77;63.61
24422;BME280;12600;53.326;-6.298;2023-03-04T07:08:38;102934.63;;;7.75;63.08
24422;BME280;12600;53.326;-6.298;2023-03-04T07:11:27;102933.56;;;7.76;63.07
24422;BME280;12600;53.326;-6.298;2023-03-04T07:14:17;102937.84;;;7.72;63.21
24422;BME280;12600;53.326;-6.298;2023-03-04T07:17:07;102929.31;;;7.68;62.52
24422;BME280;12600;53.326;-6.298;2023-03-04T07:19:57;102927.19;;;7.70;63.24
24422;BME280;12600;53.326;-6.298;2023-03-04T07:22:46;102938.28;;;7.69;62.63
24422;BME280;12600;53.326;-6.298;2023-03-04T07:25:36;102937.59;;;7.73;61.69
24422;BME280;12600;53.326;-6.298;2023-03-04T07:28:32;102942.06;;;7.68;61.87
24422;BME280;12600;53.326;-6.298;2023-03-04T07:31:26;102936.97;;;7.60;61.37
24422;BME280;12600;53.326;-6.298;2023-03-04T07:34:18;102945.84;;;7.67;61.34
24422;BME280;12600;53.326;-6.298;2023-03-04T07:37:07;102951.06;;;7.68;62.26
24422;BME280;12600;53.326;-6.298;2023-03-04T07:39:57;102947.28;;;7.69;62.20
24422;BME280;12600;53.326;-6.298;2023-03-04T07:42:49;102951.06;;;7.68;61.46
24422;BME280;12600;53.326;-6.298;2023-03-04T07:45:38;102948.09;;;7.70;62.05
24422;BME280;12600;53.326;-6.298;2023-03-04T07:48:28;102950.13;;;7.74;62.71
24422;BME280;12600;53.326;-6.298;2023-03-04T07:51:21;102948.00;;;7.76;62.54
24422;BME280;12600;53.326;-6.298;2023-03-04T07:54:11;102947.28;;;7.69;62.08
24422;BME280;12600;53.326;-6.298;2023-03-04T07:57:00;102956.41;;;7.75;61.35
24422;BME280;12600;53.326;-6.298;2023-03-04T07:59:50;102958.53;;;7.73;61.43
24422;BME280;12600;53.326;-6.298;2023-03-04T08:02:41;102953.53;;;7.70;61.49
24422;BME280;12600;53.326;-6.298;2023-03-04T08:05:31;102967.88;;;7.77;61.46
24422;BME280;12600;53.326;-6.298;2023-03-04T08:08:22;102968.25;;;7.80;61.75
24422;BME280;12600;53.326;-6.298;2023-03-04T08:11:14;102974.28;;;7.82;60.99
24422;BME280;12600;53.326;-6.298;2023-03-04T08:14:04;102974.06;;;7.84;61.38
24422;BME280;12600;53.326;-6.298;2023-03-04T08:16:53;102965.31;;;7.82;61.44
24422;BME280;12600;53.326;-6.298;2023-03-04T08:19:43;102969.91;;;7.81;60.98
24422;BME280;12600;53.326;-6.298;2023-03-04T08:22:32;102982.59;;;7.88;60.92
24422;BME280;12600;53.326;-6.298;2023-03-04T08:25:23;102981.53;;;7.89;61.15
24422;BME280;12600;53.326;-6.298;2023-03-04T08:28:12;102978.22;;;7.87;61.23
24422;BME280;12600;53.326;-6.298;2023-03-04T08:31:02;102978.22;;;7.87;61.10
24422;BME280;12600;53.326;-6.298;2023-03-04T08:33:51;102972.28;;;7.90;61.17
24422;BME280;12600;53.326;-6.298;2023-03-04T08:36:41;102969.22;;;7.86;60.94
24422;BME280;12600;53.326;-6.298;2023-03-04T08:39:30;102969.34;;;7.91;60.59
24422;BME280;12600;53.326;-6.298;2023-03-04T08:42:21;102977.41;;;7.98;60.86
24422;BME280;12600;53.326;-6.298;2023-03-04T08:45:11;102966.38;;;7.93;60.64
24422;BME280;12600;53.326;-6.298;2023-03-04T08:48:01;102975.84;;;8.02;61.46
24422;BME280;12600;53.326;-6.298;2023-03-04T08:50:51;102967.47;;;8.03;61.34
24422;BME280;12600;53.326;-6.298;2023-03-04T08:53:41;102970.91;;;8.10;61.01
24422;BME280;12600;53.326;-6.298;2023-03-04T08:56:30;102973.03;;;8.08;60.15
24422;BME280;12600;53.326;-6.298;2023-03-04T08:59:21;102972.91;;;8.03;60.12
24422;BME280;12600;53.326;-6.298;2023-03-04T09:02:10;102966.59;;;7.91;59.88
24422;BME280;12600;53.326;-6.298;2023-03-04T09:04:59;102971.72;;;7.88;59.07
24422;BME280;12600;53.326;-6.298;2023-03-04T09:07:49;102970.06;;;7.87;59.41
24422;BME280;12600;53.326;-6.298;2023-03-04T09:10:38;102971.47;;;7.89;59.66
24422;BME280;12600;53.326;-6.298;2023-03-04T09:13:29;102963.06;;;7.91;60.32
24422;BME280;12600;53.326;-6.298;2023-03-04T09:16:20;102963.06;;;7.91;58.66
24422;BME280;12600;53.326;-6.298;2023-03-04T09:19:10;102966.75;;;7.96;59.54
24422;BME280;12600;53.326;-6.298;2023-03-04T09:21:59;102966.38;;;7.93;58.57
24422;BME280;12600;53.326;-6.298;2023-03-04T09:24:49;102959.16;;;7.98;59.89
24422;BME280;12600;53.326;-6.298;2023-03-04T09:27:38;102967.69;;;8.02;59.70
24422;BME280;12600;53.326;-6.298;2023-03-04T09:30:27;102968.53;;;8.02;59.91
24422;BME280;12600;53.326;-6.298;2023-03-04T09:33:18;102960.59;;;8.01;59.53
24422;BME280;12600;53.326;-6.298;2023-03-04T09:36:09;102970.41;;;8.02;58.01
24422;BME280;12600;53.326;-6.298;2023-03-04T09:38:59;102964.50;;;8.05;59.53
24422;BME280;12600;53.326;-6.298;2023-03-04T09:41:51;102945.22;;;7.95;59.30
24422;BME280;12600;53.326;-6.298;2023-03-04T09:44:45;102973.97;;;8.14;59.02
24422;BME280;12600;53.326;-6.298;2023-03-04T09:47:37;102962.84;;;8.04;58.10
24422;BME280;12600;53.326;-6.298;2023-03-04T09:50:28;102955.47;;;7.93;57.82
24422;BME280;12600;53.326;-6.298;2023-03-04T09:53:27;102971.94;;;8.09;58.38
24422;BME280;12600;53.326;-6.298;2023-03-04T09:56:21;102976.47;;;8.16;58.95
24422;BME280;12600;53.326;-6.298;2023-03-04T09:59:23;102977.91;;;8.18;58.19
24422;BME280;12600;53.326;-6.298;2023-03-04T10:02:19;102985.31;;;7.99;58.13
24422;BME280;12600;53.326;-6.298;2023-03-04T10:05:19;102979.91;;;8.11;58.39
24422;BME280;12600;53.326;-6.298;2023-03-04T10:08:30;102980.63;;;8.18;58.52
24422;BME280;12600;53.326;-6.298;2023-03-04T10:11:26;102985.00;;;8.19;57.75
24422;BME280;12600;53.326;-6.298;2023-03-04T10:14:34;102985.72;;;8.26;58.43
24422;BME280;12600;53.326;-6.298;2023-03-04T10:17:34;102966.78;;;8.20;57.30
24422;BME280;12600;53.326;-6.298;2023-03-04T10:20:27;102983.00;;;8.26;57.99
24422;BME280;12600;53.326;-6.298;2023-03-04T10:23:24;102975.28;;;8.23;57.18
24422;BME280;12600;53.326;-6.298;2023-03-04T10:26:16;102962.75;;;8.22;57.60
24422;BME280;12600;53.326;-6.298;2023-03-04T10:29:08;102961.91;;;8.33;57.94
24422;BME280;12600;53.326;-6.298;2023-03-04T10:32:01;102964.97;;;8.25;56.58
24422;BME280;12600;53.326;-6.298;2023-03-04T10:34:50;102968.44;;;8.21;57.28
24422;BME280;12600;53.326;-6.298;2023-03-04T10:37:46;102961.31;;;8.31;57.43
24422;BME280;12600;53.326;-6.298;2023-03-04T10:40:40;102960.47;;;8.31;57.56
24422;BME280;12600;53.326;-6.298;2023-03-04T10:43:32;102957.28;;;8.34;57.37
24422;BME280;12600;53.326;-6.298;2023-03-04T10:46:22;102959.66;;;8.42;56.52
24422;BME280;12600;53.326;-6.298;2023-03-04T10:49:14;102945.56;;;8.33;55.22
24422;BME280;12600;53.326;-6.298;2023-03-04T10:52:18;102954.72;;;8.39;55.73
24422;BME280;12600;53.326;-6.298;2023-03-04T10:55:16;102924.59;;;8.34;55.83
24422;BME280;12600;53.326;-6.298;2023-03-04T10:58:14;102945.47;;;8.40;54.91
24422;BME280;12600;53.326;-6.298;2023-03-04T11:01:05;102935.41;;;8.52;55.99
24422;BME280;12600;53.326;-6.298;2023-03-04T11:03:55;102944.50;;;8.58;55.90
24422;BME280;12600;53.326;-6.298;2023-03-04T11:06:45;102949.22;;;8.62;55.88
24422;BME280;12600;53.326;-6.298;2023-03-04T11:09:35;102941.88;;;8.63;55.48
24422;BME280;12600;53.326;-6.298;2023-03-04T11:12:33;102942.63;;;8.58;53.53
24422;BME280;12600;53.326;-6.298;2023-03-04T11:15:27;102937.75;;;8.60;54.23
24422;BME280;12600;53.326;-6.298;2023-03-04T11:18:22;102942.72;;;8.63;54.23
24422;BME280;12600;53.326;-6.298;2023-03-04T11:21:17;102923.63;;;8.63;55.02
24422;BME280;12600;53.326;-6.298;2023-03-04T11:24:13;102932.84;;;8.74;55.15
24422;BME280;12600;53.326;-6.298;2023-03-04T11:27:19;102927.19;;;8.64;52.96
24422;BME280;12600;53.326;-6.298;2023-03-04T11:30:37;102934.91;;;8.67;53.68
24422;BME280;12600;53.326;-6.298;2023-03-04T11:33:35;102922.47;;;8.59;53.15
24422;BME280;12600;53.326;-6.298;2023-03-04T11:36:34;102929.81;;;8.59;53.56
24422;BME280;12600;53.326;-6.298;2023-03-04T11:39:33;102925.03;;;8.66;54.00
24422;BME280;12600;53.326;-6.298;2023-03-04T11:42:32;102922.81;;;8.63;52.90
24422;BME280;12600;53.326;-6.298;2023-03-04T11:45:42;102921.16;;;8.62;53.59
24422;BME280;12600;53.326;-6.298;2023-03-04T11:48:44;102922.19;;;8.73;53.70
24422;BME280;12600;53.326;-6.298;2023-03-04T11:51:44;102914.13;;;8.78;53.42
24422;BME280;12600;53.326;-6.298;2023-03-04T11:54:44;102895.19;;;8.71;53.58
24422;BME280;12600;53.326;-6.298;2023-03-04T11:57:43;102908.09;;;8.76;52.76
24422;BME280;12600;53.326;-6.298;2023-03-04T12:00:42;102906.19;;;8.76;52.79
24422;BME280;12600;53.326;-6.298;2023-03-04T12:07:15;102906.50;;;8.91;53.56
24422;BME280;12600;53.326;-6.298;2023-03-04T12:10:20;102909.94;;;8.87;52.62
24422;BME280;12600;53.326;-6.298;2023-03-04T12:13:46;102911.66;;;8.64;52.12
24422;BME280;12600;53.326;-6.298;2023-03-04T12:17:20;102879.09;;;8.58;52.83
24422;BME280;12600;53.326;-6.298;2023-03-04T12:20:37;102916.88;;;8.66;52.84
24422;BME280;12600;53.326;-6.298;2023-03-04T12:23:59;102897.00;;;8.54;51.93
24422;BME280;12600;53.326;-6.298;2023-03-04T12:26:56;102906.91;;;8.72;53.00
24422;BME280;12600;53.326;-6.298;2023-03-04T12:29:57;102905.47;;;8.81;52.56
24422;BME280;12600;53.326;-6.298;2023-03-04T12:32:57;102854.00;;;8.56;52.71
24422;BME280;12600;53.326;-6.298;2023-03-04T12:36:01;102908.31;;;8.74;52.18
24422;BME280;12600;53.326;-6.298;2023-03-04T12:38:59;102897.19;;;8.76;52.13
24422;BME280;12600;53.326;-6.298;2023-03-04T12:41:59;102890.53;;;8.83;52.41
24422;BME280;12600;53.326;-6.298;2023-03-04T12:44:59;102890.72;;;8.93;52.84
24422;BME280;12600;53.326;-6.298;2023-03-04T12:48:04;102882.47;;;9.05;52.81
24422;BME280;12600;53.326;-6.298;2023-03-04T12:51:13;102885.97;;;9.01;51.69
24422;BME280;12600;53.326;-6.298;2023-03-04T12:54:18;102883.94;;;8.96;51.84
24422;BME280;12600;53.326;-6.298;2023-03-04T12:57:15;102878.34;;;9.03;52.23
24422;BME280;12600;53.326;-6.298;2023-03-04T13:00:20;102867.13;;;8.99;52.02
24422;BME280;12600;53.326;-6.298;2023-03-04T13:03:20;102854.09;;;8.89;52.07
24422;BME280;12600;53.326;-6.298;2023-03-04T13:06:28;102852.00;;;8.80;51.52
24422;BME280;12600;53.326;-6.298;2023-03-04T13:09:27;102863.47;;;8.93;51.84
24422;BME280;12600;53.326;-6.298;2023-03-04T13:12:19;102857.78;;;9.12;52.65
24422;BME280;12600;53.326;-6.298;2023-03-04T13:15:32;102859.38;;;9.08;51.99
24422;BME280;12600;53.326;-6.298;2023-03-04T13:18:33;102852.28;;;9.07;52.24
24422;BME280;12600;53.326;-6.298;2023-03-04T13:21:27;102833.75;;;9.09;51.97
24422;BME280;12600;53.326;-6.298;2023-03-04T13:24:44;102833.59;;;9.15;51.77
24422;BME280;12600;53.326;-6.298;2023-03-04T13:27:48;102827.16;;;9.21;52.25
24422;BME280;12600;53.326;-6.298;2023-03-04T13:34:46;102819.06;;;9.27;51.94
24422;BME280;12600;53.326;-6.298;2023-03-04T13:37:37;102809.94;;;9.21;51.77
24422;BME280;12600;53.326;-6.298;2023-03-04T13:40:44;102816.75;;;9.35;52.26
24422;BME280;12600;53.326;-6.298;2023-03-04T13:43:54;102811.53;;;9.34;51.84
24422;BME280;12600;53.326;-6.298;2023-03-04T13:46:44;102802.03;;;9.36;52.00
24422;BME280;12600;53.326;-6.298;2023-03-04T13:49:33;102789.81;;;9.39;51.50
24422;BME280;12600;53.326;-6.298;2023-03-04T13:52:48;102796.50;;;9.31;51.29
24422;BME280;12600;53.326;-6.298;2023-03-04T13:55:39;102782.00;;;9.14;50.84
24422;BME280;12600;53.326;-6.298;2023-03-04T13:58:29;102774.59;;;9.09;50.84
24422;BME280;12600;53.326;-6.298;2023-03-04T14:01:27;102784.94;;;9.07;50.95
24422;BME280;12600;53.326;-6.298;2023-03-04T14:04:21;102788.31;;;9.14;51.02
24422;BME280;12600;53.326;-6.298;2023-03-04T14:07:23;102790.63;;;9.22;51.79
24422;BME280;12600;53.326;-6.298;2023-03-04T14:10:23;102788.72;;;9.23;51.47
24422;BME280;12600;53.326;-6.298;2023-03-04T14:13:12;102792.34;;;9.29;51.61
24422;BME280;12600;53.326;-6.298;2023-03-04T14:16:02;102789.72;;;9.17;50.30
24422;BME280;12600;53.326;-6.298;2023-03-04T14:19:00;102792.44;;;9.17;50.88
24422;BME280;12600;53.326;-6.298;2023-03-04T14:21:50;102779.38;;;9.19;51.03
24422;BME280;12600;53.326;-6.298;2023-03-04T14:24:39;102769.97;;;9.27;51.19
24422;BME280;12600;53.326;-6.298;2023-03-04T14:27:31;102785.81;;;9.13;50.26
24422;BME280;12600;53.326;-6.298;2023-03-04T14:30:25;102775.91;;;9.23;51.34
24422;BME280;12600;53.326;-6.298;2023-03-04T14:33:29;102759.56;;;9.23;50.96
24422;BME280;12600;53.326;-6.298;2023-03-04T14:36:21;102760.38;;;9.24;51.15
24422;BME280;12600;53.326;-6.298;2023-03-04T14:39:15;102761.88;;;9.32;51.40
24422;BME280;12600;53.326;-6.298;2023-03-04T14:42:10;102764.34;;;9.16;50.83
24422;BME280;12600;53.326;-6.298;2023-03-04T14:45:03;102760.84;;;9.21;51.57
24422;BME280;12600;53.326;-6.298;2023-03-04T14:47:56;102750.97;;;9.15;51.53
24422;BME280;12600;53.326;-6.298;2023-03-04T14:50:48;102743.34;;;9.17;51.65
24422;BME280;12600;53.326;-6.298;2023-03-04T14:53:53;102737.97;;;9.22;51.95
24422;BME280;12600;53.326;-6.298;2023-03-04T14:56:45;102740.22;;;9.25;51.33
24422;BME280;12600;53.326;-6.298;2023-03-04T14:59:35;102739.94;;;9.27;51.45
24422;BME280;12600;53.326;-6.298;2023-03-04T15:02:28;102737.78;;;9.29;51.50
24422;BME280;12600;53.326;-6.298;2023-03-04T15:05:26;102722.19;;;9.24;52.16
24422;BME280;12600;53.326;-6.298;2023-03-04T15:08:21;102722.50;;;9.28;51.47
24422;BME280;12600;53.326;-6.298;2023-03-04T15:11:21;102729.63;;;9.12;50.85
24422;BME280;12600;53.326;-6.298;2023-03-04T15:14:43;102744.66;;;8.97;51.43